Time;durP1;ratioP1;P1;durP2;ratioP2;P2;SDS_P1;SDS_P2;PMS_P1;PMS_P2;Temp;Humidity;BMP_temperature;BMP_pressure;BME280_temperature;BME280_humidity;BME280_pressure;Samples;Min_cycle;Max_cycle;Signal;HPM_P1;HPM_P2
2023/12/12 00:00:27;;;;;;;4.40;2.67;;;7.20;99.90;;;;;;5067942;28;20171;-63
2023/12/12 00:02:53;;;;;;;2.73;2.50;;;7.20;99.90;;;;;;5049088;28;20182;-63
2023/12/12 00:05:18;;;;;;;2.57;2.37;;;7.20;99.90;;;;;;5061224;28;20411;-63
2023/12/12 00:07:44;;;;;;;2.93;2.73;;;7.20;99.90;;;;;;5061192;28;20284;-63
2023/12/12 00:10:10;;;;;;;2.40;2.20;;;7.20;99.90;;;;;;5057218;28;20704;-63
2023/12/12 00:12:35;;;;;;;3.53;2.80;;;7.20;99.90;;;;;;5052149;28;20271;-63
2023/12/12 00:15:01;;;;;;;3.37;2.33;;;7.20;99.90;;;;;;5041313;28;20174;-63
2023/12/12 00:17:27;;;;;;;2.27;2.07;;;7.20;99.90;;;;;;5053804;28;20191;-63
2023/12/12 00:19:52;;;;;;;2.50;1.87;;;7.20;99.90;;;;;;5036769;28;20174;-63
2023/12/12 00:22:18;;;;;;;3.20;2.80;;;7.20;99.90;;;;;;5061839;28;20268;-63
2023/12/12 00:24:43;;;;;;;2.93;2.27;;;7.20;99.90;;;;;;5042708;28;20180;-63
2023/12/12 00:27:09;;;;;;;2.77;2.33;;;7.20;99.90;;;;;;5058805;28;20210;-63
2023/12/12 00:29:38;;;;;;;3.03;2.73;;;7.20;99.90;;;;;;5050038;28;20655;-63
2023/12/12 00:32:04;;;;;;;3.60;2.30;;;7.20;99.90;;;;;;5039316;28;20193;-63
2023/12/12 00:34:30;;;;;;;2.70;2.40;;;7.20;99.90;;;;;;5052723;28;20848;-63
2023/12/12 00:36:56;;;;;;;3.03;2.73;;;7.20;99.90;;;;;;5065208;28;20531;-63
2023/12/12 00:39:21;;;;;;;2.37;2.17;;;7.20;99.90;;;;;;5065813;28;20446;-63
2023/12/12 00:41:48;;;;;;;3.20;2.90;;;7.20;99.90;;;;;;5070512;28;20210;-63
2023/12/12 00:44:14;;;;;;;3.07;2.67;;;7.10;99.90;;;;;;5061650;28;20658;-66
2023/12/12 00:46:40;;;;;;;2.57;2.33;;;7.10;99.90;;;;;;5059668;28;20439;-63
2023/12/12 00:49:05;;;;;;;5.13;2.87;;;7.10;99.90;;;;;;5058765;28;20172;-63
2023/12/12 00:51:32;;;;;;;3.17;2.60;;;7.10;99.90;;;;;;5057691;28;20191;-63
2023/12/12 00:53:58;;;;;;;2.80;2.40;;;7.10;99.90;;;;;;5069256;28;20213;-63
2023/12/12 00:56:23;;;;;;;5.67;2.63;;;7.00;99.90;;;;;;5049620;28;20978;-63
2023/12/12 00:58:49;;;;;;;4.30;2.43;;;7.10;99.90;;;;;;5061593;28;20175;-63
2023/12/12 01:01:15;;;;;;;4.20;2.70;;;7.00;99.90;;;;;;5060117;28;20232;-63
2023/12/12 01:03:40;;;;;;;3.40;3.07;;;7.00;99.90;;;;;;5065839;28;20173;-63
2023/12/12 01:06:06;;;;;;;3.20;2.87;;;7.00;99.90;;;;;;5067691;28;20408;-63
2023/12/12 01:08:33;;;;;;;2.87;2.50;;;7.00;99.90;;;;;;5058859;28;20178;-63
2023/12/12 01:10:58;;;;;;;4.10;2.20;;;7.00;99.90;;;;;;5061000;28;20450;-63
2023/12/12 01:13:24;;;;;;;3.13;2.93;;;7.00;99.90;;;;;;5068555;28;20418;-63
2023/12/12 01:15:49;;;;;;;2.43;2.23;;;7.00;99.90;;;;;;5064608;28;20239;-65
2023/12/12 01:18:15;;;;;;;3.73;3.33;;;7.00;99.90;;;;;;5060287;28;20562;-63
2023/12/12 01:20:40;;;;;;;3.70;2.53;;;7.00;99.90;;;;;;5065011;28;20167;-63
2023/12/12 01:23:06;;;;;;;3.03;2.73;;;7.00;99.90;;;;;;5053283;28;20170;-63
2023/12/12 01:25:31;;;;;;;3.47;2.87;;;7.00;99.90;;;;;;5061640;28;20180;-63
2023/12/12 01:27:57;;;;;;;3.60;2.90;;;6.90;99.90;;;;;;5051295;28;20181;-63
2023/12/12 01:30:23;;;;;;;3.03;2.67;;;7.00;99.90;;;;;;5059271;28;20255;-63
2023/12/12 01:32:48;;;;;;;3.60;2.70;;;7.00;99.90;;;;;;5051260;28;20209;-63
2023/12/12 01:35:14;;;;;;;3.70;3.20;;;6.90;99.90;;;;;;5061280;28;20184;-63
2023/12/12 01:37:39;;;;;;;4.20;3.53;;;7.00;99.90;;;;;;5056123;28;20531;-63
2023/12/12 01:40:07;;;;;;;3.90;3.47;;;6.90;99.90;;;;;;5067396;28;20174;-63
2023/12/12 01:42:32;;;;;;;3.70;3.03;;;6.90;99.90;;;;;;5064833;28;20200;-63
2023/12/12 01:44:58;;;;;;;4.10;3.70;;;6.90;99.90;;;;;;5061552;28;20515;-63
2023/12/12 01:47:23;;;;;;;4.43;2.87;;;6.90;99.90;;;;;;5058956;28;20203;-63
2023/12/12 01:49:50;;;;;;;6.13;4.13;;;6.90;99.90;;;;;;5058135;28;20181;-63
2023/12/12 01:52:15;;;;;;;4.50;3.97;;;6.90;99.90;;;;;;5058801;28;20297;-63
2023/12/12 01:54:47;;;;;;;5.43;3.83;;;6.90;99.90;;;;;;5060202;28;20576;-63
2023/12/12 01:57:16;;;;;;;4.20;3.63;;;6.90;99.90;;;;;;5066104;28;20186;-64
2023/12/12 01:59:42;;;;;;;3.83;3.27;;;6.90;99.90;;;;;;5062884;28;20505;-63
2023/12/12 02:02:10;;;;;;;4.23;3.80;;;6.90;99.90;;;;;;5058550;28;20433;-63
2023/12/12 02:04:36;;;;;;;4.40;3.60;;;6.90;99.90;;;;;;5051434;28;20542;-64
2023/12/12 02:07:04;;;;;;;5.07;4.00;;;6.90;99.90;;;;;;5050236;28;20522;-63
2023/12/12 02:09:31;;;;;;;4.97;3.87;;;6.90;99.90;;;;;;5052749;28;20548;-63
2023/12/12 02:11:57;;;;;;;5.33;3.80;;;7.00;99.90;;;;;;5040770;28;21167;-63
2023/12/12 02:14:22;;;;;;;4.13;3.40;;;6.90;99.90;;;;;;5046957;28;20938;-63
2023/12/12 02:16:48;;;;;;;5.60;4.00;;;6.90;99.90;;;;;;5048784;28;20457;-63
2023/12/12 02:19:15;;;;;;;5.03;4.53;;;6.90;99.90;;;;;;5053482;28;20168;-64
2023/12/12 02:21:41;;;;;;;3.30;3.00;;;7.00;99.90;;;;;;5041528;28;20234;-64
2023/12/12 02:24:07;;;;;;;4.27;3.83;;;6.90;99.90;;;;;;5045792;28;20452;-63
2023/12/12 02:26:32;;;;;;;4.17;3.33;;;6.90;99.90;;;;;;5052914;28;20689;-63
2023/12/12 02:28:58;;;;;;;4.80;3.73;;;6.90;99.90;;;;;;5048386;28;20181;-63
2023/12/12 02:31:24;;;;;;;3.50;3.20;;;6.90;99.90;;;;;;5048708;28;20576;-63
2023/12/12 02:33:49;;;;;;;4.43;3.07;;;6.90;99.90;;;;;;5053182;28;20425;-63
2023/12/12 02:36:15;;;;;;;4.47;3.90;;;6.90;99.90;;;;;;5057291;28;20237;-63
2023/12/12 02:38:41;;;;;;;4.30;3.30;;;6.90;99.90;;;;;;5050536;28;20216;-63
2023/12/12 02:41:08;;;;;;;4.47;3.03;;;6.90;99.90;;;;;;5052574;28;20254;-65
2023/12/12 02:43:34;;;;;;;4.90;2.93;;;7.00;99.90;;;;;;5054079;28;20220;-63
2023/12/12 02:46:00;;;;;;;3.30;2.80;;;7.00;99.90;;;;;;5058033;28;20472;-63
2023/12/12 02:48:26;;;;;;;2.60;2.40;;;6.90;99.90;;;;;;5049597;28;20853;-63
2023/12/12 02:50:52;;;;;;;3.30;3.00;;;6.90;99.90;;;;;;5056482;28;20197;-63
2023/12/12 02:53:17;;;;;;;3.87;3.57;;;6.90;99.90;;;;;;5054351;28;20967;-63
2023/12/12 02:55:43;;;;;;;4.10;2.80;;;6.90;99.90;;;;;;5048811;28;20188;-63
2023/12/12 02:58:09;;;;;;;3.70;3.23;;;6.90;99.90;;;;;;5063982;28;20239;-63
2023/12/12 03:00:34;;;;;;;5.20;4.07;;;6.90;99.90;;;;;;5048631;28;20207;-63
2023/12/12 03:03:00;;;;;;;5.00;3.43;;;7.00;99.90;;;;;;5056666;28;20268;-63
2023/12/12 03:05:25;;;;;;;10.53;5.20;;;7.00;99.90;;;;;;5062304;28;20174;-63
2023/12/12 03:07:51;;;;;;;4.40;4.00;;;7.10;99.90;;;;;;5056719;28;20177;-63
2023/12/12 03:10:16;;;;;;;7.23;4.50;;;7.10;99.90;;;;;;5053713;28;20189;-63
2023/12/12 03:12:43;;;;;;;5.27;4.30;;;7.00;99.90;;;;;;5064232;28;20674;-63
2023/12/12 03:15:09;;;;;;;5.60;4.90;;;7.00;99.90;;;;;;5066684;28;20185;-63
2023/12/12 03:17:34;;;;;;;4.97;4.27;;;7.00;99.90;;;;;;5058152;28;20504;-63
2023/12/12 03:20:00;;;;;;;8.70;6.47;;;7.10;99.90;;;;;;5057137;28;20427;-62
2023/12/12 03:22:25;;;;;;;9.10;5.70;;;7.10;99.90;;;;;;5051981;28;20737;-62
2023/12/12 03:24:51;;;;;;;7.67;5.30;;;7.10;99.90;;;;;;5043902;28;20183;-63
2023/12/12 03:27:16;;;;;;;7.90;5.90;;;7.00;99.90;;;;;;5067551;28;20255;-63
2023/12/12 03:29:42;;;;;;;10.60;6.80;;;7.00;99.90;;;;;;5055947;28;20223;-63
2023/12/12 03:32:08;;;;;;;9.13;4.93;;;7.00;99.90;;;;;;5053826;28;20225;-63
2023/12/12 03:34:33;;;;;;;6.57;5.70;;;7.10;99.90;;;;;;5062216;28;20189;-63
2023/12/12 03:36:59;;;;;;;9.07;5.70;;;7.00;99.90;;;;;;5064447;28;20242;-63
2023/12/12 03:39:24;;;;;;;9.07;6.80;;;7.10;99.90;;;;;;5056939;28;20177;-63
2023/12/12 03:41:50;;;;;;;9.33;7.10;;;7.10;99.90;;;;;;5049451;28;20269;-63
2023/12/12 03:44:16;;;;;;;8.60;7.10;;;7.10;99.90;;;;;;5055684;28;20172;-63
2023/12/12 03:46:41;;;;;;;9.80;6.77;;;7.20;99.90;;;;;;5061669;28;20795;-63
2023/12/12 03:49:07;;;;;;;7.00;6.03;;;7.10;99.90;;;;;;5066498;28;20555;-63
2023/12/12 03:51:33;;;;;;;8.67;6.30;;;7.00;99.90;;;;;;5059335;28;20288;-63
2023/12/12 03:53:59;;;;;;;8.70;7.57;;;7.00;99.90;;;;;;5060874;28;20577;-63
2023/12/12 03:56:25;;;;;;;10.23;7.73;;;7.00;99.90;;;;;;5065040;28;20178;-63
2023/12/12 03:58:50;;;;;;;7.43;6.57;;;7.00;99.90;;;;;;5059936;28;20226;-63
2023/12/12 04:01:16;;;;;;;16.30;8.37;;;7.10;99.90;;;;;;5060995;28;20200;-63
2023/12/12 04:03:41;;;;;;;12.63;8.70;;;7.10;99.90;;;;;;5057653;28;20178;-63
2023/12/12 04:06:07;;;;;;;10.13;8.47;;;7.10;99.90;;;;;;5045579;28;20169;-63
2023/12/12 04:08:33;;;;;;;10.97;7.60;;;7.00;99.90;;;;;;5050548;28;20639;-63
2023/12/12 04:10:58;;;;;;;10.63;7.60;;;7.00;99.90;;;;;;5037309;28;20204;-63
2023/12/12 04:13:24;;;;;;;8.50;7.40;;;7.00;99.90;;;;;;5043629;28;20176;-63
2023/12/12 04:15:50;;;;;;;9.20;6.70;;;7.00;99.90;;;;;;5059784;28;20189;-63
2023/12/12 04:18:16;;;;;;;9.33;7.10;;;6.90;99.90;;;;;;5041612;28;20199;-65
2023/12/12 04:20:41;;;;;;;9.87;7.43;;;6.90;99.90;;;;;;5058410;28;20509;-63
2023/12/12 04:23:07;;;;;;;9.57;7.57;;;6.90;99.90;;;;;;5055722;28;20724;-67
2023/12/12 04:25:33;;;;;;;10.30;6.93;;;6.80;99.90;;;;;;5053628;28;20299;-66
2023/12/12 04:27:58;;;;;;;7.47;5.83;;;6.90;99.90;;;;;;5050106;28;20267;-63
2023/12/12 04:30:24;;;;;;;7.07;6.20;;;6.90;99.90;;;;;;5052008;28;20216;-63
2023/12/12 04:32:50;;;;;;;7.93;5.70;;;7.00;99.90;;;;;;5048250;28;20207;-64
2023/12/12 04:35:16;;;;;;;7.93;6.60;;;7.00;99.90;;;;;;5053299;28;20181;-64
2023/12/12 04:37:42;;;;;;;7.97;5.90;;;7.10;99.90;;;;;;5052114;28;20217;-64
2023/12/12 04:40:07;;;;;;;10.73;7.50;;;7.00;99.90;;;;;;5050311;28;20799;-65
2023/12/12 04:42:33;;;;;;;9.00;6.23;;;7.00;99.90;;;;;;5048023;28;20190;-65
2023/12/12 04:44:58;;;;;;;8.57;6.27;;;7.00;99.90;;;;;;5052215;28;20177;-64
2023/12/12 04:47:24;;;;;;;9.53;6.30;;;7.00;99.90;;;;;;5049459;28;20244;-65
2023/12/12 04:49:51;;;;;;;8.20;5.50;;;6.90;99.90;;;;;;5055882;28;20190;-65
2023/12/12 04:52:16;;;;;;;8.60;5.93;;;6.90;99.90;;;;;;5044075;28;20194;-64
2023/12/12 04:54:42;;;;;;;8.60;5.27;;;7.00;99.90;;;;;;5055863;28;20813;-64
2023/12/12 04:57:07;;;;;;;7.10;5.90;;;7.00;99.90;;;;;;5044214;28;20688;-64
2023/12/12 04:59:33;;;;;;;6.47;4.80;;;6.90;99.90;;;;;;5051454;28;20203;-65
2023/12/12 05:01:58;;;;;;;8.83;5.40;;;7.00;99.90;;;;;;5046086;28;20679;-64
2023/12/12 05:04:24;;;;;;;6.30;5.13;;;7.10;99.90;;;;;;5050958;28;20180;-64
2023/12/12 05:06:50;;;;;;;5.27;3.80;;;7.10;99.90;;;;;;5058060;28;20494;-63
2023/12/12 05:09:17;;;;;;;4.97;4.33;;;6.90;99.90;;;;;;5044482;28;20192;-65
2023/12/12 05:11:42;;;;;;;5.03;4.47;;;7.00;99.90;;;;;;5045583;28;20291;-62
2023/12/12 05:14:10;;;;;;;7.03;3.70;;;7.00;99.90;;;;;;5052126;28;20879;-62
2023/12/12 05:16:36;;;;;;;7.40;3.90;;;7.00;99.90;;;;;;5039948;28;20195;-62
2023/12/12 05:19:02;;;;;;;4.63;4.23;;;7.00;99.90;;;;;;5041159;28;20427;-62
2023/12/12 05:21:28;;;;;;;8.90;4.80;;;7.00;99.90;;;;;;5057269;28;20256;-63
2023/12/12 05:23:53;;;;;;;4.00;3.70;;;6.90;99.90;;;;;;5051543;28;20423;-63
2023/12/12 05:26:19;;;;;;;9.50;3.97;;;6.90;99.90;;;;;;5045251;28;20450;-63
2023/12/12 05:28:45;;;;;;;4.40;4.00;;;6.90;99.90;;;;;;5041429;28;20558;-62
2023/12/12 05:31:11;;;;;;;6.40;4.40;;;7.00;99.90;;;;;;5040729;28;20569;-63
2023/12/12 05:33:37;;;;;;;8.77;4.43;;;6.90;99.90;;;;;;5051036;28;20410;-62
2023/12/12 05:36:03;;;;;;;3.70;3.40;;;7.00;99.90;;;;;;5035948;28;20420;-61
2023/12/12 05:38:29;;;;;;;9.13;4.50;;;6.90;99.90;;;;;;5058987;28;20464;-63
2023/12/12 05:40:56;;;;;;;4.80;3.10;;;6.90;99.90;;;;;;5046958;28;20493;-63
2023/12/12 05:46:43;;;;;;;6.03;3.90;;;6.80;99.90;;;;;;5031938;28;20423;-63
2023/12/12 05:49:09;;;;;;;4.43;3.20;;;6.90;99.90;;;;;;5042414;28;20983;-63
2023/12/12 05:51:37;;;;;;;5.57;3.13;;;6.80;99.90;;;;;;5045676;28;20357;-62
2023/12/12 05:54:03;;;;;;;3.77;2.97;;;6.80;99.90;;;;;;5044614;28;20234;-62
2023/12/12 05:56:29;;;;;;;5.83;4.13;;;6.70;99.90;;;;;;5043565;28;20485;-62
2023/12/12 05:58:56;;;;;;;3.90;3.10;;;6.70;99.90;;;;;;5045250;28;20430;-63
2023/12/12 06:01:22;;;;;;;4.83;3.73;;;6.80;99.90;;;;;;5045800;28;20466;-63
2023/12/12 06:03:48;;;;;;;4.17;3.73;;;6.80;99.90;;;;;;5049629;28;20171;-63
2023/12/12 06:06:14;;;;;;;5.40;3.40;;;6.70;99.90;;;;;;5047027;28;20428;-63
2023/12/12 06:08:39;;;;;;;6.93;4.57;;;6.70;99.90;;;;;;5047892;28;20212;-61
2023/12/12 06:11:06;;;;;;;6.67;4.60;;;6.80;99.90;;;;;;5058281;28;20613;-62
2023/12/12 06:13:31;;;;;;;5.90;4.63;;;6.80;99.90;;;;;;5058604;28;20639;-63
2023/12/12 06:15:58;;;;;;;9.17;5.47;;;6.80;99.90;;;;;;5059366;28;20492;-62
2023/12/12 06:18:24;;;;;;;8.80;5.90;;;6.90;99.90;;;;;;5066050;28;20240;-62
2023/12/12 06:20:50;;;;;;;8.83;6.07;;;6.80;99.90;;;;;;5054091;28;20454;-63
2023/12/12 06:23:16;;;;;;;6.07;5.23;;;6.80;99.90;;;;;;5042608;28;20430;-63
2023/12/12 06:25:41;;;;;;;6.43;5.80;;;6.90;99.90;;;;;;5063602;28;20681;-62
2023/12/12 06:28:07;;;;;;;11.50;6.10;;;6.90;99.90;;;;;;5053312;28;20180;-63
2023/12/12 06:30:32;;;;;;;8.27;4.93;;;6.90;99.90;;;;;;5056396;28;20188;-63
2023/12/12 06:32:58;;;;;;;7.90;5.67;;;6.90;99.90;;;;;;5058811;28;20544;-64
2023/12/12 06:35:24;;;;;;;10.73;5.47;;;6.80;99.90;;;;;;5057902;28;20418;-64
2023/12/12 06:37:49;;;;;;;6.33;5.43;;;6.80;99.90;;;;;;5039483;28;20851;-64
2023/12/12 06:40:15;;;;;;;9.77;5.23;;;6.80;99.90;;;;;;5047483;28;20602;-63
2023/12/12 06:42:49;;;;;;;8.50;5.80;;;6.80;99.90;;;;;;5046892;28;20285;-63
2023/12/12 06:45:15;;;;;;;7.77;5.73;;;6.90;99.90;;;;;;5057365;28;20233;-63
2023/12/12 06:47:41;;;;;;;8.20;6.20;;;6.90;99.90;;;;;;5044972;28;20469;-64
2023/12/12 06:50:07;;;;;;;9.40;5.40;;;6.80;99.90;;;;;;5037801;28;20467;-62
2023/12/12 06:52:33;;;;;;;7.30;5.60;;;6.80;99.90;;;;;;5046475;28;20666;-62
2023/12/12 06:54:59;;;;;;;6.77;5.40;;;6.80;99.90;;;;;;5046768;28;20188;-64
2023/12/12 06:57:25;;;;;;;7.70;5.60;;;6.80;99.90;;;;;;5042476;28;20459;-64
2023/12/12 06:59:54;;;;;;;6.70;4.90;;;6.80;99.90;;;;;;5044569;28;20421;-64
2023/12/12 07:02:20;;;;;;;8.07;5.57;;;6.70;99.90;;;;;;5034227;28;20433;-64
2023/12/12 07:04:46;;;;;;;6.67;5.90;;;6.70;99.90;;;;;;5047718;28;20525;-63
2023/12/12 07:07:11;;;;;;;8.07;6.40;;;6.70;99.90;;;;;;5050634;28;20184;-64
2023/12/12 07:09:37;;;;;;;10.67;6.03;;;6.70;99.90;;;;;;5063219;28;20849;-62
2023/12/12 07:12:04;;;;;;;9.97;6.90;;;6.70;99.90;;;;;;5053909;28;20260;-62
2023/12/12 07:14:30;;;;;;;10.50;6.00;;;6.70;99.90;;;;;;5046322;28;20279;-61
2023/12/12 07:16:56;;;;;;;10.77;7.33;;;6.70;99.90;;;;;;5048928;28;20450;-62
2023/12/12 07:19:22;;;;;;;10.40;7.60;;;6.80;99.90;;;;;;5041624;28;20420;-62
2023/12/12 07:21:47;;;;;;;12.83;7.63;;;6.70;99.90;;;;;;5044000;28;20272;-62
2023/12/12 07:24:14;;;;;;;10.67;7.47;;;6.80;99.90;;;;;;5053497;28;20189;-62
2023/12/12 07:26:44;;;;;;;10.97;7.10;;;6.80;99.90;;;;;;5055008;28;20176;-63
2023/12/12 07:29:09;;;;;;;12.13;8.37;;;6.70;99.90;;;;;;5050027;28;20510;-62
2023/12/12 07:31:35;;;;;;;9.63;7.60;;;6.80;99.90;;;;;;5042057;28;20585;-62
2023/12/12 07:34:00;;;;;;;11.47;6.60;;;6.80;99.90;;;;;;5061865;28;20670;-62
2023/12/12 07:36:26;;;;;;;11.57;8.00;;;6.90;99.90;;;;;;5053764;28;20759;-63
2023/12/12 07:38:51;;;;;;;9.80;7.13;;;6.70;99.90;;;;;;5061865;28;20271;-63
2023/12/12 07:41:17;;;;;;;9.33;6.93;;;6.60;99.90;;;;;;5059649;28;20651;-62
2023/12/12 07:43:42;;;;;;;7.73;6.30;;;6.60;99.90;;;;;;5066710;28;20174;-65
2023/12/12 07:46:08;;;;;;;9.33;7.13;;;6.70;99.90;;;;;;5058370;28;20171;-63
2023/12/12 07:48:34;;;;;;;15.07;7.20;;;6.80;99.90;;;;;;5057045;28;20211;-63
2023/12/12 07:50:59;;;;;;;10.23;6.50;;;6.90;99.90;;;;;;5062521;28;20194;-64
2023/12/12 07:53:25;;;;;;;20.93;6.53;;;7.00;99.90;;;;;;5056320;28;20290;-63
2023/12/12 07:55:50;;;;;;;10.10;7.87;;;6.90;99.90;;;;;;5069142;28;20184;-63
2023/12/12 07:58:17;;;;;;;8.27;7.20;;;6.90;99.90;;;;;;5058848;28;20279;-62
2023/12/12 08:00:44;;;;;;;9.40;7.20;;;6.90;99.90;;;;;;5053990;28;20207;-63
2023/12/12 08:03:09;;;;;;;9.70;7.17;;;7.00;99.90;;;;;;5051966;28;20733;-63
2023/12/12 08:05:37;;;;;;;12.23;7.53;;;6.80;99.90;;;;;;5064298;28;20411;-64
2023/12/12 08:08:04;;;;;;;13.37;8.40;;;6.80;99.90;;;;;;5050729;28;20183;-63
2023/12/12 08:10:30;;;;;;;8.20;7.00;;;6.80;99.90;;;;;;5056177;28;20885;-63
2023/12/12 08:12:57;;;;;;;9.47;7.77;;;6.80;99.90;;;;;;5052132;28;20422;-63
2023/12/12 08:15:23;;;;;;;15.00;6.63;;;6.80;99.90;;;;;;5053717;28;20851;-63
2023/12/12 08:17:49;;;;;;;15.83;9.03;;;6.80;99.90;;;;;;5050751;28;20445;-64
2023/12/12 08:20:14;;;;;;;10.40;7.90;;;6.90;99.90;;;;;;5051816;28;20270;-63
2023/12/12 08:22:40;;;;;;;9.53;7.50;;;6.80;99.90;;;;;;5060955;28;20198;-64
2023/12/12 08:25:07;;;;;;;12.97;7.67;;;6.90;99.90;;;;;;5050567;28;20420;-63
2023/12/12 08:27:33;;;;;;;16.03;9.13;;;6.90;99.90;;;;;;5050975;28;20180;-63
2023/12/12 08:30:04;;;;;;;12.53;8.53;;;6.90;99.90;;;;;;5052882;28;20899;-63
2023/12/12 08:32:30;;;;;;;14.03;7.87;;;6.90;99.90;;;;;;5046849;28;20215;-63
2023/12/12 08:34:56;;;;;;;11.53;7.23;;;6.90;99.90;;;;;;5043735;28;20407;-63
2023/12/12 08:37:21;;;;;;;16.37;10.27;;;6.80;99.90;;;;;;5035819;28;20458;-64
2023/12/12 08:39:47;;;;;;;15.17;8.20;;;6.90;99.90;;;;;;5055542;28;20173;-63
2023/12/12 08:42:13;;;;;;;9.43;7.03;;;6.80;99.90;;;;;;5045305;28;20198;-62
2023/12/12 08:44:41;;;;;;;11.90;7.70;;;6.80;99.90;;;;;;5053218;28;20172;-62
2023/12/12 08:47:06;;;;;;;14.90;7.87;;;6.80;99.90;;;;;;5046347;28;20846;-63
2023/12/12 08:49:37;;;;;;;8.60;6.97;;;6.80;99.90;;;;;;5043332;28;20489;-63
2023/12/12 08:52:06;;;;;;;15.50;8.30;;;7.00;99.90;;;;;;5036165;28;20208;-63
2023/12/12 08:54:33;;;;;;;12.33;6.90;;;7.00;99.90;;;;;;5039527;28;20918;-63
2023/12/12 08:56:58;;;;;;;15.93;6.90;;;6.90;99.90;;;;;;5057579;28;20463;-63
2023/12/12 08:59:24;;;;;;;7.00;6.30;;;6.90;99.90;;;;;;5046403;28;20928;-63
2023/12/12 09:01:50;;;;;;;10.53;7.53;;;7.00;99.90;;;;;;5042675;28;20569;-63
2023/12/12 09:04:16;;;;;;;18.63;7.43;;;7.00;99.90;;;;;;5054830;28;20524;-62
2023/12/12 09:06:44;;;;;;;8.00;6.37;;;7.00;99.90;;;;;;5044362;28;20177;-62
2023/12/12 09:09:14;;;;;;;10.43;5.90;;;7.00;99.90;;;;;;5046537;28;20494;-62
2023/12/12 09:11:40;;;;;;;9.93;7.30;;;7.00;99.90;;;;;;5044348;28;20931;-62
2023/12/12 09:14:07;;;;;;;7.87;5.27;;;7.00;99.90;;;;;;5037471;28;20530;-64
2023/12/12 09:16:32;;;;;;;10.27;6.20;;;6.90;99.90;;;;;;5041468;28;20251;-64
2023/12/12 09:18:58;;;;;;;7.63;5.20;;;6.80;99.90;;;;;;5039403;28;20442;-63
2023/12/12 09:21:24;;;;;;;13.03;5.70;;;6.80;99.90;;;;;;5041271;28;20184;-63
2023/12/12 09:23:49;;;;;;;6.90;4.40;;;6.90;99.90;;;;;;5041716;28;20549;-63
2023/12/12 09:26:15;;;;;;;8.23;5.20;;;6.90;99.90;;;;;;5050777;28;20169;-63
2023/12/12 09:28:42;;;;;;;6.63;4.70;;;6.90;99.90;;;;;;5051423;28;20218;-64
2023/12/12 09:31:11;;;;;;;6.50;4.70;;;7.10;99.90;;;;;;5044324;28;20973;-64
2023/12/12 09:33:37;;;;;;;11.40;5.20;;;7.00;99.90;;;;;;5040551;28;20416;-63
2023/12/12 09:36:04;;;;;;;8.50;4.93;;;7.10;99.90;;;;;;5043871;28;20419;-64
2023/12/12 09:38:30;;;;;;;8.33;4.60;;;7.20;99.90;;;;;;5043452;28;20474;-64
2023/12/12 09:40:56;;;;;;;5.80;4.50;;;7.00;99.90;;;;;;5040394;28;20432;-63
2023/12/12 09:43:26;;;;;;;9.27;5.10;;;7.00;99.90;;;;;;5045676;28;20587;-64
2023/12/12 09:45:56;;;;;;;10.07;5.13;;;7.00;99.90;;;;;;5044038;28;20446;-69
2023/12/12 09:48:21;;;;;;;5.93;4.70;;;7.00;99.90;;;;;;5050891;28;20545;-63
2023/12/12 09:50:48;;;;;;;4.10;3.70;;;7.00;99.90;;;;;;5046133;28;20527;-64
2023/12/12 09:53:14;;;;;;;8.70;5.10;;;7.00;99.90;;;;;;5043421;28;20593;-63
2023/12/12 09:55:41;;;;;;;7.80;5.50;;;7.00;99.90;;;;;;5041659;28;20466;-64
2023/12/12 09:58:07;;;;;;;5.97;4.40;;;7.00;99.90;;;;;;5048108;28;20203;-64
2023/12/12 10:00:33;;;;;;;9.20;5.60;;;6.90;99.90;;;;;;5038206;28;20510;-64
2023/12/12 10:03:04;;;;;;;7.30;5.47;;;7.00;99.90;;;;;;5051452;28;20692;-64
2023/12/12 10:05:32;;;;;;;9.00;5.53;;;6.90;99.90;;;;;;5055003;28;20585;-64
2023/12/12 10:08:01;;;;;;;8.50;5.50;;;7.10;99.90;;;;;;5056720;28;20429;-64
2023/12/12 10:10:27;;;;;;;13.37;5.27;;;7.20;99.90;;;;;;5046530;28;20407;-64
2023/12/12 10:12:52;;;;;;;7.50;5.87;;;7.10;99.90;;;;;;5052906;28;20818;-63
2023/12/12 10:15:26;;;;;;;10.00;5.13;;;7.10;99.90;;;;;;5059684;28;20446;-63
2023/12/12 10:17:56;;;;;;;9.80;4.83;;;7.20;99.90;;;;;;5051274;28;20562;-63
2023/12/12 10:20:30;;;;;;;8.27;5.50;;;7.20;99.90;;;;;;5058803;28;20393;-62
2023/12/12 10:23:01;;;;;;;14.93;6.30;;;7.10;99.90;;;;;;5057891;28;20489;-63
2023/12/12 10:25:31;;;;;;;9.83;5.40;;;7.10;99.90;;;;;;5052652;28;20402;-64
2023/12/12 10:27:57;;;;;;;6.33;5.40;;;7.10;99.90;;;;;;5062290;28;20926;-64
2023/12/12 10:30:23;;;;;;;8.93;6.17;;;7.20;99.90;;;;;;5059859;28;20757;-65
2023/12/12 10:32:51;;;;;;;8.23;6.03;;;7.10;99.90;;;;;;5052881;28;20829;-64
2023/12/12 10:35:17;;;;;;;9.03;5.40;;;7.00;99.90;;;;;;5056746;28;20406;-65
2023/12/12 10:37:43;;;;;;;8.87;5.53;;;6.80;99.90;;;;;;5052720;28;20457;-65
2023/12/12 10:40:12;;;;;;;7.30;5.30;;;6.90;99.90;;;;;;5068228;28;20795;-66
2023/12/12 10:42:40;;;;;;;9.37;4.50;;;7.00;99.90;;;;;;5060494;28;20300;-64
2023/12/12 10:45:08;;;;;;;5.17;4.07;;;6.90;99.90;;;;;;5065764;28;20867;-66
2023/12/12 10:47:39;;;;;;;4.43;4.00;;;7.00;99.90;;;;;;5051421;28;20400;-62
2023/12/12 10:50:08;;;;;;;6.77;4.20;;;7.00;99.90;;;;;;5054984;28;20410;-65
2023/12/12 10:52:34;;;;;;;10.00;4.80;;;7.10;99.90;;;;;;5059571;28;20810;-64
2023/12/12 10:55:01;;;;;;;4.77;3.93;;;7.00;99.90;;;;;;5054045;28;20413;-64
2023/12/12 10:57:29;;;;;;;5.37;4.50;;;7.00;99.90;;;;;;5056732;28;20457;-61
2023/12/12 10:59:56;;;;;;;8.90;5.00;;;7.10;99.90;;;;;;5054669;28;20418;-63
2023/12/12 11:02:23;;;;;;;6.13;5.60;;;7.00;99.90;;;;;;5054407;28;20458;-62
2023/12/12 11:04:49;;;;;;;8.53;4.23;;;7.10;99.90;;;;;;5052457;28;20411;-63
2023/12/12 11:07:15;;;;;;;11.40;4.97;;;7.10;99.90;;;;;;5050289;28;20432;-62
2023/12/12 11:09:41;;;;;;;4.87;4.37;;;7.20;99.90;;;;;;5040029;28;20563;-63
2023/12/12 11:12:08;;;;;;;5.63;5.13;;;7.30;99.90;;;;;;5052321;28;20753;-63
2023/12/12 11:14:34;;;;;;;5.80;5.20;;;7.30;99.90;;;;;;5046324;28;20414;-63
2023/12/12 11:17:00;;;;;;;7.10;5.40;;;7.30;99.90;;;;;;5037872;28;20507;-63
2023/12/12 11:19:26;;;;;;;9.80;5.17;;;7.10;99.90;;;;;;5046419;28;20879;-63
2023/12/12 11:21:52;;;;;;;6.13;5.20;;;7.10;99.90;;;;;;5047341;28;20191;-63
2023/12/12 11:24:19;;;;;;;12.10;5.30;;;7.10;99.90;;;;;;5052704;28;20421;-63
2023/12/12 11:26:49;;;;;;;11.17;5.20;;;7.00;99.90;;;;;;5037551;28;20253;-62
2023/12/12 11:29:18;;;;;;;8.07;5.07;;;7.10;99.90;;;;;;5046988;28;20455;-63
2023/12/12 11:31:57;;;;;;;7.97;5.30;;;7.20;99.90;;;;;;5043842;28;20451;-65
2023/12/12 11:34:23;;;;;;;9.20;5.53;;;7.30;99.90;;;;;;5041639;28;20840;-66
2023/12/12 11:36:53;;;;;;;7.90;4.27;;;7.30;99.90;;;;;;5041716;28;20497;-64
2023/12/12 11:39:34;;;;;;;7.87;4.63;;;7.40;99.90;;;;;;5042991;28;20767;-69
2023/12/12 11:42:03;;;;;;;7.30;5.17;;;7.40;99.90;;;;;;5044023;28;20427;-70
2023/12/12 11:44:51;;;;;;;9.00;4.40;;;7.50;99.90;;;;;;5048358;28;20412;-68
2023/12/12 11:47:20;;;;;;;9.43;4.47;;;7.60;99.90;;;;;;5047477;28;20488;-72
2023/12/12 11:49:45;;;;;;;5.60;4.93;;;7.50;99.90;;;;;;5051925;28;20618;-68
2023/12/12 11:52:31;;;;;;;10.27;4.50;;;7.60;99.90;;;;;;5050893;28;20986;-65
2023/12/12 11:54:56;;;;;;;8.90;5.47;;;7.60;99.90;;;;;;5035801;28;20199;-68
2023/12/12 11:57:23;;;;;;;7.73;4.20;;;7.50;99.90;;;;;;5043598;28;20775;-76
2023/12/12 11:59:48;;;;;;;10.00;4.40;;;7.50;99.90;;;;;;5042722;28;20186;-65
2023/12/12 12:02:14;;;;;;;6.97;4.47;;;7.70;99.90;;;;;;5043183;28;20967;-63
2023/12/12 12:04:39;;;;;;;10.80;4.07;;;7.80;99.90;;;;;;5053891;28;20640;-63
2023/12/12 12:07:05;;;;;;;8.60;4.20;;;7.80;99.90;;;;;;5057064;28;20182;-63
2023/12/12 12:09:32;;;;;;;7.70;3.87;;;7.90;99.90;;;;;;5054103;28;20179;-64
2023/12/12 12:11:58;;;;;;;4.30;3.80;;;7.90;99.90;;;;;;5045931;28;20513;-63
2023/12/12 12:14:24;;;;;;;4.70;4.20;;;7.90;99.90;;;;;;5042321;28;20442;-63
2023/12/12 12:16:53;;;;;;;5.50;3.90;;;7.90;99.90;;;;;;5037591;28;20180;-62
2023/12/12 12:19:35;;;;;;;3.77;3.10;;;8.00;99.90;;;;;;5050211;28;20661;-64
2023/12/12 12:22:01;;;;;;;5.87;4.17;;;8.00;99.90;;;;;;5046374;28;20450;-66
2023/12/12 12:24:27;;;;;;;5.03;3.80;;;7.90;99.90;;;;;;5038285;28;20409;-63
2023/12/12 12:26:53;;;;;;;5.80;3.50;;;7.90;99.90;;;;;;5050037;28;20657;-63
2023/12/12 12:29:19;;;;;;;7.47;4.80;;;8.20;99.90;;;;;;5043929;28;20447;-64
2023/12/12 12:31:45;;;;;;;6.20;3.53;;;8.40;99.90;;;;;;5045525;28;20508;-63
2023/12/12 12:34:23;;;;;;;8.50;3.30;;;8.30;99.90;;;;;;5047140;28;20680;-64
2023/12/12 12:36:51;;;;;;;4.80;3.80;;;8.30;99.90;;;;;;5043635;28;20554;-64
2023/12/12 12:39:18;;;;;;;7.67;3.60;;;8.50;99.90;;;;;;5053664;28;20916;-64
2023/12/12 12:41:46;;;;;;;7.70;4.03;;;8.40;99.90;;;;;;5041881;28;20431;-64
2023/12/12 12:44:13;;;;;;;6.33;3.37;;;8.50;99.90;;;;;;5047827;28;20455;-65
2023/12/12 12:46:49;;;;;;;3.73;3.13;;;8.50;99.90;;;;;;5042334;28;20409;-65
2023/12/12 12:49:15;;;;;;;4.97;3.67;;;8.40;99.90;;;;;;5045367;28;20819;-64
2023/12/12 12:51:42;;;;;;;5.00;2.70;;;8.40;99.90;;;;;;5040819;28;20426;-65
2023/12/12 12:54:08;;;;;;;7.23;3.43;;;8.60;99.90;;;;;;5052493;28;20190;-65